createdAt,value
2022-12-23T00:01:16.726Z,5.30
2022-12-23T00:03:46.200Z,4.68
2022-12-23T00:06:18.080Z,4.82
2022-12-23T00:08:47.664Z,4.75
2022-12-23T00:11:19.851Z,5.53
2022-12-23T00:14:06.382Z,4.88
2022-12-23T00:16:39.365Z,4.47
2022-12-23T00:19:08.502Z,5.28
2022-12-23T00:21:38.063Z,4.57
2022-12-23T00:24:07.743Z,4.10
2022-12-23T00:26:37.579Z,4.60
2022-12-23T00:29:06.867Z,4.00
2022-12-23T00:31:37.779Z,4.38
2022-12-23T00:34:07.049Z,4.72
2022-12-23T00:36:38.417Z,4.03
2022-12-23T00:39:27.260Z,3.78
2022-12-23T00:42:14.068Z,3.75
2022-12-23T00:44:44.207Z,3.63
2022-12-23T00:47:36.121Z,4.45
2022-12-23T00:50:04.764Z,3.88
2022-12-23T00:52:34.567Z,4.20
2022-12-23T00:55:03.776Z,4.32
2022-12-23T00:57:33.162Z,3.70
2022-12-23T01:00:02.261Z,4.32
2022-12-23T01:02:50.613Z,5.60
2022-12-23T01:08:20.774Z,3.83
2022-12-23T01:10:50.233Z,5.30
2022-12-23T01:13:19.384Z,6.40
2022-12-23T01:15:48.951Z,5.57
2022-12-23T01:18:18.106Z,6.40
2022-12-23T01:20:47.601Z,6.20
2022-12-23T01:23:16.811Z,6.45
2022-12-23T01:25:48.109Z,7.22
2022-12-23T01:28:17.404Z,5.97
2022-12-23T01:30:46.746Z,6.03
2022-12-23T01:33:15.890Z,7.15
2022-12-23T01:35:45.215Z,6.93
2022-12-23T01:38:14.277Z,6.03
2022-12-23T01:40:46.542Z,6.78
2022-12-23T01:43:16.854Z,7.28
2022-12-23T01:45:46.901Z,6.80
2022-12-23T01:48:19.695Z,7.10
2022-12-23T01:50:54.222Z,7.75
2022-12-23T01:53:26.397Z,7.38
2022-12-23T01:56:01.914Z,7.25
2022-12-23T01:58:36.164Z,8.18
2022-12-23T02:01:38.618Z,6.88
2022-12-23T02:04:10.913Z,6.40
2022-12-23T02:06:59.611Z,7.47
2022-12-23T02:09:32.000Z,7.22
2022-12-23T02:12:31.160Z,7.07
2022-12-23T02:15:30.277Z,6.45
2022-12-23T02:18:21.309Z,7.15
2022-12-23T02:21:23.569Z,6.90
2022-12-23T02:24:39.178Z,6.80
2022-12-23T02:27:17.135Z,6.65
2022-12-23T02:30:07.762Z,7.18
2022-12-23T02:33:00.316Z,7.20
2022-12-23T02:35:35.686Z,6.72
2022-12-23T02:38:13.082Z,7.32
2022-12-23T02:40:52.242Z,6.30
2022-12-23T02:43:28.155Z,6.97
2022-12-23T02:46:06.219Z,6.30
2022-12-23T02:48:40.877Z,5.95
2022-12-23T02:51:13.156Z,6.88
2022-12-23T02:53:47.947Z,7.75
2022-12-23T02:56:19.504Z,7.20
2022-12-23T02:58:53.316Z,5.75
2022-12-23T03:01:25.652Z,6.03
2022-12-23T03:03:56.558Z,6.45
2022-12-23T03:06:30.538Z,6.50
2022-12-23T03:09:01.585Z,6.32
2022-12-23T03:11:41.398Z,6.30
2022-12-23T03:14:35.030Z,6.50
2022-12-23T03:17:19.057Z,6.35
2022-12-23T03:19:56.363Z,6.47
2022-12-23T03:22:34.025Z,5.68
2022-12-23T03:25:10.348Z,6.43
2022-12-23T03:27:44.328Z,6.55
2022-12-23T03:35:32.727Z,6.88
2022-12-23T03:38:04.659Z,6.18
2022-12-23T03:40:39.792Z,6.85
2022-12-23T03:43:14.291Z,6.50
2022-12-23T03:45:48.198Z,7.07
2022-12-23T03:48:22.354Z,6.65
2022-12-23T03:50:57.065Z,7.97
2022-12-23T03:53:31.887Z,7.57
2022-12-23T03:56:04.499Z,10.35
2022-12-23T03:58:40.790Z,7.85
2022-12-23T04:01:18.479Z,9.70
2022-12-23T04:03:56.036Z,8.05
2022-12-23T04:06:33.829Z,8.40
2022-12-23T04:09:04.714Z,9.18
2022-12-23T04:11:35.320Z,8.68
2022-12-23T04:14:04.883Z,7.40
2022-12-23T04:16:34.861Z,8.63
2022-12-23T04:19:04.341Z,8.57
2022-12-23T04:21:34.780Z,9.20
2022-12-23T04:24:04.320Z,7.80
2022-12-23T04:26:33.590Z,8.65
2022-12-23T04:29:03.011Z,8.82
2022-12-23T04:31:32.177Z,8.15
2022-12-23T04:34:01.861Z,10.00
2022-12-23T04:36:30.986Z,9.02
2022-12-23T04:39:01.886Z,9.55
2022-12-23T04:41:31.002Z,9.00
2022-12-23T04:44:00.366Z,10.57
2022-12-23T04:46:29.604Z,10.18
2022-12-23T04:48:59.047Z,9.63
2022-12-23T04:51:28.279Z,8.55
2022-12-23T04:53:57.661Z,9.30
2022-12-23T04:56:28.150Z,11.52
2022-12-23T04:58:57.633Z,11.68
2022-12-23T05:01:26.870Z,9.63
2022-12-23T05:03:56.436Z,10.93
2022-12-23T05:06:25.486Z,13.93
2022-12-23T05:08:55.142Z,14.13
2022-12-23T05:11:24.270Z,11.02
2022-12-23T05:13:55.056Z,9.07
2022-12-23T05:16:24.291Z,9.85
2022-12-23T05:18:53.673Z,9.40
2022-12-23T05:21:22.836Z,9.18
2022-12-23T05:23:52.312Z,8.70
2022-12-23T05:26:21.629Z,9.57
2022-12-23T05:28:51.078Z,8.68
2022-12-23T05:31:21.562Z,11.57
2022-12-23T05:33:51.044Z,10.80
2022-12-23T05:36:20.313Z,9.63
2022-12-23T05:38:49.700Z,8.75
2022-12-23T05:41:19.192Z,9.82
2022-12-23T05:43:48.625Z,9.93
2022-12-23T05:46:24.340Z,10.73
2022-12-23T05:48:57.449Z,10.60
2022-12-23T05:51:26.763Z,11.15
2022-12-23T05:53:56.279Z,8.68
2022-12-23T05:56:25.557Z,7.78
2022-12-23T05:58:55.224Z,8.10
2022-12-23T06:01:24.401Z,7.88
2022-12-23T06:03:53.885Z,9.07
2022-12-23T06:06:24.724Z,8.07
2022-12-23T06:08:59.338Z,9.43
2022-12-23T06:11:29.065Z,10.57
2022-12-23T06:13:58.472Z,9.18
2022-12-23T06:16:27.765Z,8.02
2022-12-23T06:18:57.647Z,8.35
2022-12-23T06:21:28.876Z,8.10
2022-12-23T06:23:58.427Z,8.55
2022-12-23T06:26:27.588Z,7.30
2022-12-23T06:28:57.007Z,8.50
2022-12-23T06:31:26.228Z,8.27
2022-12-23T06:33:55.650Z,8.63
2022-12-23T06:36:24.806Z,9.38
2022-12-23T06:38:55.719Z,8.40
2022-12-23T06:41:24.934Z,9.27
2022-12-23T06:43:54.833Z,8.80
2022-12-23T06:46:23.992Z,8.43
2022-12-23T06:48:53.418Z,8.13
2022-12-23T06:51:22.561Z,9.50
2022-12-23T06:53:52.055Z,9.13
2022-12-23T06:56:23.109Z,8.75
2022-12-23T06:58:53.103Z,8.77
2022-12-23T07:01:22.778Z,10.63
2022-12-23T07:03:52.499Z,8.43
2022-12-23T07:06:21.731Z,8.38
2022-12-23T07:08:52.750Z,8.98
2022-12-23T07:11:23.389Z,8.35
2022-12-23T07:13:52.872Z,7.53
2022-12-23T07:16:22.097Z,9.43
2022-12-23T07:18:51.495Z,8.45
2022-12-23T07:21:28.623Z,8.57
2022-12-23T07:23:58.990Z,8.05
2022-12-23T07:26:29.406Z,11.20
2022-12-23T07:28:58.948Z,9.50
2022-12-23T07:31:28.360Z,9.20
2022-12-23T07:33:57.738Z,9.98
2022-12-23T07:36:26.848Z,10.35
2022-12-23T07:38:56.431Z,11.35
2022-12-23T07:41:25.692Z,9.50
2022-12-23T07:43:56.656Z,10.20
2022-12-23T07:46:25.786Z,10.13
2022-12-23T07:48:55.263Z,9.52
2022-12-23T07:51:24.695Z,8.80
2022-12-23T07:53:54.274Z,11.77
2022-12-23T07:56:23.525Z,12.55
2022-12-23T07:58:53.889Z,11.10
2022-12-23T08:01:24.647Z,9.52
2022-12-23T08:03:54.231Z,10.70
2022-12-23T08:06:23.474Z,14.82
2022-12-23T08:08:53.066Z,12.25
2022-12-23T08:11:22.231Z,13.10
2022-12-23T08:13:52.870Z,11.05
2022-12-23T08:16:23.375Z,10.15
2022-12-23T08:18:52.888Z,12.82
2022-12-23T08:21:22.128Z,11.02
2022-12-23T08:23:52.373Z,10.90
2022-12-23T08:26:23.123Z,12.18
2022-12-23T08:28:54.049Z,12.77
2022-12-23T08:31:26.719Z,10.20
2022-12-23T08:33:58.435Z,11.68
2022-12-23T08:36:30.124Z,12.93
2022-12-23T08:39:01.654Z,11.38
2022-12-23T08:41:32.726Z,11.55
2022-12-23T08:44:02.481Z,9.20
2022-12-23T08:46:33.367Z,11.68
2022-12-23T08:49:03.149Z,10.57
2022-12-23T08:51:32.568Z,10.75
2022-12-23T08:54:02.695Z,10.55
2022-12-23T08:56:34.549Z,10.55
2022-12-23T08:59:04.543Z,11.20
2022-12-23T09:01:36.056Z,12.63
2022-12-23T09:04:06.799Z,11.20
2022-12-23T09:06:38.459Z,9.20
2022-12-23T09:09:08.791Z,13.45
2022-12-23T09:11:38.388Z,11.25
2022-12-23T09:14:10.297Z,9.90
2022-12-23T09:16:41.214Z,12.10
2022-12-23T09:19:10.823Z,10.57
2022-12-23T09:21:39.928Z,13.60
2022-12-23T09:24:09.613Z,16.48
2022-12-23T09:26:38.982Z,15.55
2022-12-23T09:29:08.442Z,12.63
2022-12-23T09:31:39.464Z,11.25
2022-12-23T09:34:12.129Z,12.45
2022-12-23T09:36:41.257Z,9.68
2022-12-23T09:39:12.635Z,9.40
2022-12-23T09:42:01.721Z,12.00
2022-12-23T09:44:44.744Z,11.00
2022-12-23T09:47:21.174Z,10.18
2022-12-23T09:49:54.502Z,10.13
2022-12-23T09:52:29.771Z,10.90
2022-12-23T09:54:59.178Z,10.80
2022-12-23T09:57:35.379Z,10.55
2022-12-23T10:00:13.200Z,12.55
2022-12-23T10:02:57.327Z,10.02
2022-12-23T10:05:36.998Z,10.32
2022-12-23T10:08:12.865Z,9.95
2022-12-23T10:10:47.467Z,11.73
2022-12-23T10:13:26.721Z,9.50
2022-12-23T10:15:59.629Z,11.23
2022-12-23T10:18:43.466Z,10.25
2022-12-23T10:21:17.789Z,10.70
2022-12-23T10:23:52.388Z,9.75
2022-12-23T10:26:25.849Z,10.25
2022-12-23T10:29:01.812Z,10.02
2022-12-23T10:31:45.953Z,10.75
2022-12-23T10:34:22.969Z,10.40
2022-12-23T10:37:01.427Z,11.85
2022-12-23T10:39:37.675Z,16.27
2022-12-23T10:42:19.174Z,14.07
2022-12-23T10:45:19.744Z,12.52
2022-12-23T10:47:59.633Z,12.48
2022-12-23T10:50:51.866Z,9.43
2022-12-23T10:53:31.861Z,9.85
2022-12-23T10:56:02.027Z,9.70
2022-12-23T10:58:32.369Z,10.07
2022-12-23T11:01:11.802Z,9.73
2022-12-23T11:03:52.989Z,9.55
2022-12-23T11:06:23.820Z,8.68
2022-12-23T11:08:53.526Z,9.35
2022-12-23T11:11:22.831Z,9.50
2022-12-23T11:13:52.440Z,8.63
2022-12-23T11:16:26.207Z,10.50
2022-12-23T11:18:59.656Z,9.05
2022-12-23T11:21:32.251Z,9.70
2022-12-23T11:24:10.521Z,9.75
2022-12-23T11:26:39.618Z,9.40
2022-12-23T11:29:13.382Z,8.93
2022-12-23T11:31:45.263Z,9.82
2022-12-23T11:34:19.923Z,10.48
2022-12-23T11:37:00.294Z,9.15
2022-12-23T11:39:36.453Z,8.70
2022-12-23T11:42:12.590Z,9.50
2022-12-23T11:44:45.956Z,9.77
2022-12-23T11:47:29.255Z,10.70
2022-12-23T11:50:00.457Z,10.10
2022-12-23T11:52:33.489Z,10.82
2022-12-23T11:55:04.007Z,9.07
2022-12-23T11:57:39.769Z,11.07
2022-12-23T12:00:20.549Z,11.63
2022-12-23T12:02:53.114Z,11.13
2022-12-23T12:05:26.037Z,11.15
2022-12-23T12:08:02.474Z,11.05
2022-12-23T12:10:35.928Z,9.50
2022-12-23T12:13:07.081Z,9.13
2022-12-23T12:15:44.402Z,9.98
2022-12-23T12:18:16.773Z,10.07
2022-12-23T12:20:49.711Z,10.38
2022-12-23T12:23:26.705Z,10.77
2022-12-23T12:26:01.829Z,10.55
2022-12-23T12:28:36.242Z,10.40
2022-12-23T12:31:17.434Z,9.73
2022-12-23T12:33:51.052Z,11.05
2022-12-23T12:36:31.785Z,10.80
2022-12-23T12:39:02.363Z,10.48
2022-12-23T12:41:38.125Z,11.13
2022-12-23T12:44:24.431Z,10.38
2022-12-23T12:46:59.699Z,10.00
2022-12-23T12:49:37.032Z,10.32
2022-12-23T12:52:13.887Z,11.02
2022-12-23T12:54:51.252Z,11.02
2022-12-23T12:57:24.075Z,10.20
2022-12-23T13:00:03.643Z,9.32
2022-12-23T13:03:03.120Z,10.23
2022-12-23T13:05:54.065Z,10.52
2022-12-23T13:08:42.655Z,9.38
2022-12-23T13:11:26.516Z,10.77
2022-12-23T13:16:44.648Z,9.93
2022-12-23T13:19:23.752Z,10.30
2022-12-23T13:22:02.715Z,9.65
2022-12-23T13:24:38.855Z,9.68
2022-12-23T13:27:16.310Z,9.75
2022-12-23T13:30:04.285Z,9.80
2022-12-23T13:32:44.371Z,9.93
2022-12-23T13:35:26.656Z,9.52
2022-12-23T13:38:05.179Z,10.10
2022-12-23T13:40:44.699Z,9.05
2022-12-23T13:43:20.279Z,9.25
2022-12-23T13:45:51.581Z,9.55
2022-12-23T13:48:33.391Z,9.18
2022-12-23T13:51:09.171Z,9.68
2022-12-23T13:54:00.659Z,9.77
2022-12-23T13:56:42.805Z,10.77
2022-12-23T13:59:16.684Z,9.23
2022-12-23T14:01:48.275Z,10.10
2022-12-23T14:04:38.050Z,9.93
2022-12-23T14:07:20.259Z,9.65
2022-12-23T14:09:56.334Z,9.73
2022-12-23T14:12:29.771Z,9.50
2022-12-23T14:15:36.283Z,11.20
2022-12-23T14:18:17.955Z,10.55
2022-12-23T14:20:54.097Z,10.95
2022-12-23T14:23:41.842Z,10.50
2022-12-23T14:26:37.590Z,9.95
2022-12-23T14:29:27.634Z,10.75
2022-12-23T14:31:59.523Z,11.38
2022-12-23T14:34:32.010Z,11.52
2022-12-23T14:37:34.646Z,11.00
2022-12-23T14:40:45.675Z,12.63
2022-12-23T14:43:34.127Z,12.63
2022-12-23T14:46:06.013Z,11.80
2022-12-23T14:52:38.035Z,13.00
2022-12-23T14:55:45.218Z,32.85
2022-12-23T14:58:35.202Z,14.25
2022-12-23T15:01:11.041Z,13.32
2022-12-23T15:03:48.122Z,13.32
2022-12-23T15:06:21.745Z,12.35
2022-12-23T15:08:54.524Z,26.00
2022-12-23T15:11:28.371Z,21.55
2022-12-23T15:14:04.372Z,45.05
2022-12-23T15:16:36.731Z,39.70
2022-12-23T15:19:20.162Z,18.15
2022-12-23T15:21:58.321Z,11.32
2022-12-23T15:24:32.693Z,9.25
2022-12-23T15:29:54.829Z,9.10
2022-12-23T15:32:26.162Z,7.45
2022-12-23T15:35:06.461Z,6.95
2022-12-23T15:37:36.240Z,8.48
2022-12-23T15:40:12.993Z,8.98
2022-12-23T15:42:49.767Z,8.77
2022-12-23T15:45:34.905Z,10.13
2022-12-23T15:48:05.264Z,9.90
2022-12-23T15:50:41.810Z,10.82
2022-12-23T15:53:15.950Z,13.65
2022-12-23T15:55:46.199Z,10.57
2022-12-23T15:58:23.659Z,9.55
2022-12-23T16:00:57.597Z,9.48
2022-12-23T16:03:33.129Z,8.55
2022-12-23T16:06:11.488Z,9.25
2022-12-23T16:08:40.867Z,11.15
2022-12-23T16:11:16.250Z,10.80
2022-12-23T16:13:58.743Z,9.82
2022-12-23T16:16:43.194Z,9.45
2022-12-23T16:19:40.352Z,9.45
2022-12-23T16:22:26.876Z,9.38
2022-12-23T16:25:02.983Z,10.07
2022-12-23T16:27:40.540Z,10.02
2022-12-23T16:30:17.077Z,9.60
2022-12-23T16:32:52.349Z,9.38
2022-12-23T16:35:31.899Z,9.25
2022-12-23T16:38:17.148Z,8.85
2022-12-23T16:40:48.148Z,9.13
2022-12-23T16:43:18.395Z,8.00
2022-12-23T16:45:50.931Z,10.00
2022-12-23T16:48:26.639Z,11.38
2022-12-23T16:50:56.176Z,11.93
2022-12-23T16:53:26.057Z,10.80
2022-12-23T16:56:00.539Z,11.25
2022-12-23T16:58:30.659Z,10.05
2022-12-23T17:00:59.873Z,9.70
2022-12-23T17:03:32.646Z,10.85
2022-12-23T17:06:01.961Z,12.93
2022-12-23T17:08:31.422Z,13.02
2022-12-23T17:11:00.997Z,12.55
2022-12-23T17:13:30.384Z,12.27
2022-12-23T17:15:59.724Z,8.23
2022-12-23T17:18:30.535Z,8.30
2022-12-23T17:20:59.776Z,7.03
2022-12-23T17:23:33.268Z,7.05
2022-12-23T17:26:02.368Z,4.93
2022-12-23T17:28:34.142Z,4.53
2022-12-23T17:31:08.635Z,5.40
2022-12-23T17:33:42.951Z,3.40
2022-12-23T17:36:14.074Z,3.97
2022-12-23T17:38:43.851Z,4.40
2022-12-23T17:41:21.225Z,4.50
2022-12-23T17:43:50.677Z,4.03
2022-12-23T17:46:19.995Z,4.38
2022-12-23T17:48:50.844Z,4.22
2022-12-23T17:51:22.024Z,3.50
2022-12-23T17:53:57.608Z,3.70
2022-12-23T17:58:59.770Z,4.70
2022-12-23T18:01:31.015Z,4.68
2022-12-23T18:04:02.385Z,4.38
2022-12-23T18:06:31.769Z,4.32
2022-12-23T18:09:01.167Z,4.05
2022-12-23T18:11:35.073Z,4.00
2022-12-23T18:14:05.601Z,3.63
2022-12-23T18:16:34.747Z,4.88
2022-12-23T18:19:07.517Z,5.20
2022-12-23T18:21:37.117Z,4.80
2022-12-23T18:24:07.692Z,5.78
2022-12-23T18:26:37.414Z,4.57
2022-12-23T18:29:06.959Z,5.95
2022-12-23T18:31:37.068Z,5.55
2022-12-23T18:34:08.320Z,5.25
2022-12-23T18:36:37.523Z,6.25
2022-12-23T18:39:06.885Z,6.78
2022-12-23T18:41:36.195Z,8.30
2022-12-23T18:44:06.117Z,7.05
2022-12-23T18:46:35.416Z,7.53
2022-12-23T18:49:09.014Z,7.25
2022-12-23T18:51:40.365Z,7.25
2022-12-23T18:54:14.200Z,7.18
2022-12-23T18:56:43.362Z,7.03
2022-12-23T18:59:21.408Z,7.03
2022-12-23T19:01:57.317Z,7.72
2022-12-23T19:04:28.658Z,11.70
2022-12-23T19:06:58.770Z,9.95
2022-12-23T19:09:28.598Z,8.63
2022-12-23T19:11:58.631Z,12.60
2022-12-23T19:14:28.652Z,47.45
2022-12-23T19:17:00.124Z,32.42
2022-12-23T19:19:31.006Z,15.20
2022-12-23T19:22:00.290Z,16.40
2022-12-23T19:24:29.882Z,12.75
2022-12-23T19:26:59.115Z,12.88
2022-12-23T19:29:29.880Z,14.40
2022-12-23T19:31:59.688Z,12.35
2022-12-23T19:34:31.046Z,8.68
2022-12-23T19:37:01.748Z,6.50
2022-12-23T19:39:31.473Z,5.22
2022-12-23T19:42:00.933Z,5.57
2022-12-23T19:44:32.291Z,3.63
2022-12-23T19:47:01.945Z,3.28
2022-12-23T19:49:34.791Z,4.18
2022-12-23T19:52:04.307Z,3.83
2022-12-23T19:54:34.138Z,4.30
2022-12-23T19:57:03.573Z,4.13
2022-12-23T19:59:33.937Z,4.30
2022-12-23T20:02:03.377Z,5.38
2022-12-23T20:04:35.330Z,5.40
2022-12-23T20:07:04.504Z,5.57
2022-12-23T20:09:34.103Z,7.20
2022-12-23T20:12:04.861Z,6.00
2022-12-23T20:14:34.683Z,7.35
2022-12-23T20:17:04.287Z,7.97
2022-12-23T20:19:39.064Z,6.63
2022-12-23T20:22:13.124Z,5.68
2022-12-23T20:24:42.579Z,6.38
2022-12-23T20:27:14.819Z,7.45
2022-12-23T20:29:45.403Z,6.00
2022-12-23T20:32:14.935Z,6.82
2022-12-23T20:34:45.835Z,6.93
2022-12-23T20:37:15.897Z,7.40
2022-12-23T20:39:45.581Z,8.43
2022-12-23T20:42:14.873Z,7.05
2022-12-23T20:44:44.524Z,7.50
2022-12-23T20:47:15.650Z,6.88
2022-12-23T20:49:46.496Z,9.27
2022-12-23T20:52:15.675Z,12.02
2022-12-23T20:54:45.668Z,12.70
2022-12-23T20:57:15.040Z,17.02
2022-12-23T20:59:44.570Z,15.10
2022-12-23T21:02:15.949Z,20.33
2022-12-23T21:04:47.220Z,16.23
2022-12-23T21:07:16.800Z,14.50
2022-12-23T21:09:46.496Z,13.25
2022-12-23T21:12:15.780Z,12.30
2022-12-23T21:14:45.448Z,12.80
2022-12-23T21:17:14.598Z,13.35
2022-12-23T21:19:45.380Z,11.43
2022-12-23T21:22:14.534Z,14.13
2022-12-23T21:24:44.581Z,14.75
2022-12-23T21:27:13.925Z,14.52
2022-12-23T21:29:43.342Z,16.27
2022-12-23T21:32:12.749Z,17.95
2022-12-23T21:34:42.462Z,18.30
2022-12-23T21:37:13.049Z,21.02
2022-12-23T21:39:42.583Z,20.13
2022-12-23T21:42:11.892Z,27.73
2022-12-23T21:44:41.508Z,25.17
2022-12-23T21:47:13.232Z,25.13
2022-12-23T21:49:44.253Z,36.85
2022-12-23T21:52:14.804Z,29.70
2022-12-23T21:54:44.266Z,32.28
2022-12-23T21:57:13.412Z,37.33
2022-12-23T21:59:42.948Z,54.17
2022-12-23T22:02:16.453Z,48.50
2022-12-23T22:04:46.123Z,43.30
2022-12-23T22:07:16.766Z,36.30
2022-12-23T22:09:46.206Z,36.33
2022-12-23T22:12:15.497Z,31.73
2022-12-23T22:14:44.888Z,31.98
2022-12-23T22:17:14.060Z,30.83
2022-12-23T22:19:43.556Z,31.70
2022-12-23T22:22:12.876Z,31.25
2022-12-23T22:24:43.632Z,32.53
2022-12-23T22:27:12.819Z,38.08
2022-12-23T22:29:42.519Z,30.08
2022-12-23T22:32:11.917Z,28.98
2022-12-23T22:34:41.525Z,34.45
2022-12-23T22:37:10.899Z,33.42
2022-12-23T22:39:40.470Z,38.35
2022-12-23T22:42:10.985Z,35.63
2022-12-23T22:44:40.364Z,31.73
2022-12-23T22:47:09.707Z,31.90
2022-12-23T22:49:39.270Z,28.90
2022-12-23T22:52:08.379Z,26.33
2022-12-23T22:54:37.826Z,25.23
2022-12-23T22:57:07.065Z,33.58
2022-12-23T22:59:38.530Z,45.30
2022-12-23T23:02:07.803Z,41.60
2022-12-23T23:04:37.330Z,36.15
2022-12-23T23:07:08.254Z,22.73
2022-12-23T23:09:37.984Z,24.83
2022-12-23T23:12:07.341Z,20.17
2022-12-23T23:14:52.043Z,25.02
2022-12-23T23:17:22.558Z,27.73
2022-12-23T23:19:52.659Z,34.50
2022-12-23T23:22:23.309Z,29.67
2022-12-23T23:24:52.842Z,26.55
2022-12-23T23:27:22.005Z,28.40
2022-12-23T23:29:52.817Z,35.33
2022-12-23T23:32:22.088Z,31.95
2022-12-23T23:34:51.475Z,31.92
2022-12-23T23:37:20.548Z,32.50
2022-12-23T23:39:50.073Z,29.23
2022-12-23T23:42:19.202Z,30.58
2022-12-23T23:44:48.766Z,21.95
2022-12-23T23:47:19.442Z,21.52
2022-12-23T23:49:48.910Z,19.58
2022-12-23T23:52:18.170Z,22.27
2022-12-23T23:54:47.615Z,12.95
2022-12-23T23:57:16.703Z,13.43
2022-12-23T23:59:46.171Z,16.23
